^^
Station Historical Data
Daily Summary for January 1, 2017 Units:  Metric    English   Both
« Previous Day
Next Day »
Daily Weekly Monthly Yearly Custom
  High: Low: Average:
Temperature: 40.1 °C 21 °C 33.4 °C
Dew Point: 19.5 °C 8.5 °C 12.9 °C
Humidity: 89% 15% 33%
Wind Speed: 37km/h 0km/h 11.1km/h
Wind Gust: 48.3km/h - -
Wind- - South
Pressure: 1008.4 hPa 998.5 hPa -
Precipitation: 3.3 mm    
Historical Graphs
 
 
Tabular Data for January 1, 2017
Time Temperature Dew Point Pressure Wind Wind Speed Wind Gust Humidity Rainfall Rate (Hourly) solar Conditions
06:54 24.2 °C 9.4 °C 1005.6 hPa Calm     39% 0 mm 109.0 W/m2
06:59 24.3 °C 9.5 °C 1005.6 hPa Calm     39% 0 mm 125.0 W/m2
07:04 24.5 °C 9.2 °C 1005.3 hPa Calm     38% 0 mm 148.0 W/m2
07:08 24.6 °C 9.3 °C 1005.6 hPa Calm     38% 0 mm 165.0 W/m2
07:17 24.8 °C 9.1 °C 1005.6 hPa Calm     37% 0 mm 185.0 W/m2
07:23 25.1 °C 9.4 °C 1005.6 hPa SW 9.7 km/h 11.3 km/h 37% 0 mm 223.0 W/m2
07:33 25.3 °C 9.2 °C 1005.6 hPa SW 6.4 km/h 11.3 km/h 36% 0 mm 258.0 W/m2
07:52 25.7 °C 9.5 °C 1005.6 hPa SW 6.4 km/h 9.7 km/h 36% 0 mm 290.0 W/m2
09:32 32.3 °C 12.5 °C 1005.3 hPa Calm   1.6 km/h 30% 0 mm 645.0 W/m2
09:37 32.9 °C 13.5 °C 1005.3 hPa SW 1.4 km/h 6.4 km/h 31% 0 mm 657.0 W/m2
09:42 33.3 °C 13.4 °C 1005.3 hPa SW 9.7 km/h 9.7 km/h 30% 0 mm 671.0 W/m2
09:47 33.8 °C 13.8 °C 1005.3 hPa West 4.7 km/h 16.1 km/h 30% 0 mm 684.0 W/m2
09:52 34 °C 14 °C 1005.3 hPa NNW 6.4 km/h 22.5 km/h 30% 0 mm 694.0 W/m2
09:57 34.2 °C 13.6 °C 1005 hPa NNW 13 km/h 22.5 km/h 29% 0 mm 707.0 W/m2
10:02 34.2 °C 13.6 °C 1005.3 hPa North 9.7 km/h 24.1 km/h 29% 0 mm 722.0 W/m2
10:07 34.3 °C 13.7 °C 1005 hPa North 6.4 km/h 14.5 km/h 29% 0 mm 735.0 W/m2
10:12 34.4 °C 13.8 °C 1005 hPa North 13 km/h 20.9 km/h 29% 0 mm 751.0 W/m2
10:17 34.5 °C 13.9 °C 1005 hPa North 11.1 km/h 20.9 km/h 29% 0 mm 765.0 W/m2
10:23 34.7 °C 14.1 °C 1005 hPa North 7.9 km/h 19.3 km/h 29% 0 mm 770.0 W/m2
10:29 34.7 °C 13.5 °C 1004.6 hPa Calm   8 km/h 28% 0 mm 786.0 W/m2
10:43 34.8 °C 13.6 °C 1004.6 hPa NNW 14.3 km/h 25.7 km/h 28% 0 mm 809.0 W/m2
10:55 35.3 °C 13.5 °C 1004.6 hPa NNW 17.7 km/h 24.1 km/h 27% 0 mm 844.0 W/m2
11:03 36.1 °C 13 °C 1004.3 hPa NNW 11.1 km/h 27.4 km/h 25% 0 mm 863.0 W/m2
11:13 36.6 °C 12.8 °C 1004.6 hPa North 24.1 km/h 27.4 km/h 24% 0 mm 882.0 W/m2
11:19 36.2 °C 13 °C 1004.3 hPa Calm   24.1 km/h 25% 0 mm 893.0 W/m2
11:25 36.5 °C 13.3 °C 1004.3 hPa Calm   8 km/h 25% 0 mm 909.0 W/m2
11:32 36.8 °C 12.9 °C 1004.3 hPa NE 16.3 km/h 22.5 km/h 24% 0 mm 923.0 W/m2
11:52 37.3 °C 12.7 °C 1003.9 hPa Calm   8 km/h 23% 0 mm 998.0 W/m2
11:59 37.4 °C 12.8 °C 1003.9 hPa NNE 11.1 km/h 22.5 km/h 23% 0 mm 1035.0 W/m2
12:08 37.7 °C 12.3 °C 1003.9 hPa NNW 9.7 km/h 14.5 km/h 22% 0 mm 1035.0 W/m2
12:13 37.6 °C 12.3 °C 1003.9 hPa North 9.7 km/h 17.7 km/h 22% 0 mm 206.0 W/m2
12:23 37.8 °C 12.4 °C 1003.6 hPa Calm   14.5 km/h 22% 0 mm 1074.0 W/m2
12:33 38.4 °C 11.5 °C 1003.6 hPa NE 19.5 km/h 20.9 km/h 20% 0 mm 1107.0 W/m2
12:39 38.3 °C 12.1 °C 1003.6 hPa Calm   6.4 km/h 21% 0 mm 202.0 W/m2
12:47 38.1 °C 12 °C 1003.3 hPa East 11.1 km/h 19.3 km/h 21% 0 mm 1109.0 W/m2
12:57 38.3 °C 11.4 °C 1003.6 hPa NE 22.7 km/h 27.4 km/h 20% 0 mm 1063.0 W/m2
13:04 38.3 °C 10.6 °C 1002.9 hPa NE 11.1 km/h 22.5 km/h 19% 0 mm 1114.0 W/m2
13:49 38.6 °C 10.9 °C 1002.6 hPa NE 3.2 km/h 17.7 km/h 19% 0 mm 234.0 W/m2
14:03 38 °C 10.4 °C 1002.3 hPa North 22.7 km/h 22.7 km/h 19% 0 mm 264.0 W/m2
14:11 37.8 °C 11 °C 1001.9 hPa NE 11.1 km/h 14.5 km/h 20% 0 mm 246.0 W/m2
14:13 38.3 °C 10.6 °C 1001.9 hPa NE 14.3 km/h 20.9 km/h 19% 0 mm 265.0 W/m2
14:21 38.8 °C 10.2 °C 1001.9 hPa NNE 9.7 km/h 19.3 km/h 18% 0 mm 1065.0 W/m2
14:28 38.8 °C 10.2 °C 1001.6 hPa NE 17.7 km/h 22.5 km/h 18% 0 mm 1021.0 W/m2
14:34 38.8 °C 10.2 °C 1001.6 hPa NE 17.7 km/h 22.5 km/h 18% 0 mm 1021.0 W/m2
14:49 38.3 °C 10.6 °C 1001.2 hPa NE 9.7 km/h 22.5 km/h 19% 0 mm 195.0 W/m2
14:58 39.6 °C 10 °C 1000.9 hPa NE 7.9 km/h 22.5 km/h 17% 0 mm 1000.0 W/m2
15:14 39 °C 9.5 °C 1000.6 hPa NE 13 km/h 27.4 km/h 17% 0 mm 227.0 W/m2
15:18 38.8 °C 9.4 °C 1000.6 hPa NE 20.9 km/h 25.7 km/h 17% 0 mm 209.0 W/m2
15:33 38.6 °C 9.2 °C 1000.2 hPa NE 4.7 km/h 22.5 km/h 17% 0 mm 221.0 W/m2
15:49 39.4 °C 8.9 °C 1000.2 hPa East 24.1 km/h 29 km/h 16% 0 mm 810.0 W/m2
16:10 39.1 °C 8.7 °C 999.5 hPa NNE 3.2 km/h 12.9 km/h 16% 0 mm 207.0 W/m2
16:20 39.3 °C 9.8 °C 999.2 hPa NE 20.9 km/h 20.9 km/h 17% 0 mm 721.0 W/m2
16:35 40.1 °C 8.5 °C 998.9 hPa ENE 3.2 km/h 14.5 km/h 15% 0 mm 677.0 W/m2
16:44 39.9 °C 9.3 °C 998.9 hPa ENE 9.7 km/h 22.5 km/h 16% 0 mm 647.0 W/m2
17:04 39.6 °C 9.1 °C 998.5 hPa ENE 4.7 km/h 12.9 km/h 16% 0 mm 114.0 W/m2
17:15 39 °C 8.6 °C 998.5 hPa NE 7.9 km/h 8 km/h 16% 0 mm 134.0 W/m2
17:19 38.6 °C 9.2 °C 998.5 hPa Calm     17% 0 mm 144.0 W/m2
17:41 38.5 °C 13 °C 998.5 hPa Calm     22% 0 mm 91.0 W/m2
17:55 37.2 °C 13.3 °C 998.5 hPa South 13 km/h 27.4 km/h 24% 0 mm 42.0 W/m2
17:59 35 °C 14.8 °C 998.5 hPa SW 37 km/h 40.2 km/h 30% 0 mm 30.0 W/m2
18:21 30.7 °C 17.4 °C 999.2 hPa SW 28.8 km/h 37 km/h 45% 0.51 mm 18.0 W/m2
18:30 30.6 °C 13.8 °C 999.5 hPa SSW 27.4 km/h 43.5 km/h 36% 0.51 mm 16.0 W/m2
18:45 29.1 °C 16.3 °C 999.5 hPa South 25.9 km/h 27.4 km/h 46% 0.51 mm 28.0 W/m2
19:00 30.1 °C 15 °C 999.5 hPa South 19.5 km/h 27.4 km/h 40% 0.51 mm 16.0 W/m2
19:15 31.3 °C 17.2 °C 999.9 hPa South 11.1 km/h 11.3 km/h 43% 0 mm 5.0 W/m2
19:30 29.3 °C 17.5 °C 999.5 hPa SSW 13 km/h 17.7 km/h 49% 0.51 mm 0.0 W/m2
19:37 29.3 °C 17.5 °C 999.5 hPa SSW 13 km/h 17.7 km/h 49% 0.51 mm 0.0 W/m2
19:45 29.4 °C 18.2 °C 999.9 hPa SW 16.3 km/h 22.5 km/h 51% 0.51 mm 0.0 W/m2
20:07 29.8 °C 16.9 °C 999.9 hPa SW 13 km/h 17.7 km/h 46% 0.51 mm 0.0 W/m2
20:15 29.3 °C 17.5 °C 1000.9 hPa Calm     49% 0.51 mm 0.0 W/m2
20:39 30.1 °C 16.5 °C 1001.2 hPa WSW 7.9 km/h 12.9 km/h 44% 0 mm 0.0 W/m2
20:54 28.6 °C 17.5 °C 1003.3 hPa NNW 14.3 km/h 41.8 km/h 51% 1.27 mm 0.0 W/m2
21:08 26.6 °C 16.8 °C 1002.3 hPa NW 25.9 km/h 48.3 km/h 55% 1.27 mm 0.0 W/m2
21:16 24.8 °C 19 °C 1003.9 hPa NNW 22.7 km/h 37 km/h 70% 1.27 mm 0.0 W/m2
21:31 23.7 °C 18.6 °C 1004.3 hPa NNW 20.9 km/h 25.7 km/h 73% 1.27 mm 0.0 W/m2
21:37 23.7 °C 18.6 °C 1004.3 hPa NNW 20.9 km/h 25.7 km/h 73% 1.27 mm 0.0 W/m2
21:51 22.9 °C 19.3 °C 1005.6 hPa NE 13 km/h 16.1 km/h 80% 0 mm 0.0 W/m2
22:03 22.1 °C 19.5 °C 1007 hPa NE 11.1 km/h 24.1 km/h 85% 0 mm 0.0 W/m2
22:16 21.6 °C 19.3 °C 1008 hPa East 16.3 km/h 24.1 km/h 87% 0.51 mm 0.0 W/m2
22:24 21 °C 19.1 °C 1008.4 hPa NE 11.1 km/h 19.3 km/h 89% 1.27 mm 0.0 W/m2
Canyon Roadhouse, Fishriver Canyon, Namibia
Compliments of Weather Underground - 2 mb